sensor_id;sensor_type;location;lat;lon;timestamp;P1;durP1;ratioP1;P2;durP2;ratioP2
37280;SDS011;23169;41.804;12.596;2023-02-26T00:01:38;12.88;;;4.93;;
37280;SDS011;23169;41.804;12.596;2023-02-26T00:06:34;13.40;;;3.92;;
37280;SDS011;23169;41.804;12.596;2023-02-26T00:09:04;20.73;;;4.38;;
37280;SDS011;23169;41.804;12.596;2023-02-26T00:11:32;14.57;;;4.40;;
37280;SDS011;23169;41.804;12.596;2023-02-26T00:13:59;14.63;;;3.60;;
37280;SDS011;23169;41.804;12.596;2023-02-26T00:16:31;10.10;;;3.90;;
37280;SDS011;23169;41.804;12.596;2023-02-26T00:19:02;14.05;;;3.80;;
37280;SDS011;23169;41.804;12.596;2023-02-26T00:21:31;10.00;;;3.38;;
37280;SDS011;23169;41.804;12.596;2023-02-26T00:24:00;13.98;;;4.30;;
37280;SDS011;23169;41.804;12.596;2023-02-26T00:26:29;14.80;;;4.03;;
37280;SDS011;23169;41.804;12.596;2023-02-26T00:28:57;15.38;;;4.50;;
37280;SDS011;23169;41.804;12.596;2023-02-26T00:31:24;12.27;;;4.55;;
37280;SDS011;23169;41.804;12.596;2023-02-26T00:33:53;14.55;;;4.75;;
37280;SDS011;23169;41.804;12.596;2023-02-26T00:36:23;9.18;;;4.05;;
37280;SDS011;23169;41.804;12.596;2023-02-26T00:38:55;16.40;;;3.58;;
37280;SDS011;23169;41.804;12.596;2023-02-26T00:41:37;8.52;;;3.15;;
37280;SDS011;23169;41.804;12.596;2023-02-26T00:44:05;15.68;;;3.95;;
37280;SDS011;23169;41.804;12.596;2023-02-26T00:46:35;16.13;;;6.50;;
37280;SDS011;23169;41.804;12.596;2023-02-26T00:49:21;15.15;;;4.35;;
37280;SDS011;23169;41.804;12.596;2023-02-26T00:51:58;15.75;;;3.40;;
37280;SDS011;23169;41.804;12.596;2023-02-26T00:54:39;20.38;;;4.38;;
37280;SDS011;23169;41.804;12.596;2023-02-26T00:57:06;17.83;;;4.60;;
37280;SDS011;23169;41.804;12.596;2023-02-26T01:02:01;16.65;;;4.30;;
37280;SDS011;23169;41.804;12.596;2023-02-26T01:04:30;14.15;;;4.10;;
37280;SDS011;23169;41.804;12.596;2023-02-26T01:06:59;17.15;;;3.75;;
37280;SDS011;23169;41.804;12.596;2023-02-26T01:09:31;12.70;;;3.78;;
37280;SDS011;23169;41.804;12.596;2023-02-26T01:12:06;19.00;;;4.15;;
37280;SDS011;23169;41.804;12.596;2023-02-26T01:14:37;13.77;;;3.42;;
37280;SDS011;23169;41.804;12.596;2023-02-26T01:17:10;14.35;;;4.25;;
37280;SDS011;23169;41.804;12.596;2023-02-26T01:19:59;17.55;;;3.83;;
37280;SDS011;23169;41.804;12.596;2023-02-26T01:22:39;19.30;;;3.55;;
37280;SDS011;23169;41.804;12.596;2023-02-26T01:25:19;13.05;;;3.92;;
37280;SDS011;23169;41.804;12.596;2023-02-26T01:27:49;15.73;;;4.20;;
37280;SDS011;23169;41.804;12.596;2023-02-26T01:30:18;15.90;;;4.07;;
37280;SDS011;23169;41.804;12.596;2023-02-26T01:32:48;17.02;;;3.88;;
37280;SDS011;23169;41.804;12.596;2023-02-26T01:38:26;18.02;;;4.00;;
37280;SDS011;23169;41.804;12.596;2023-02-26T01:44:12;11.82;;;4.50;;
37280;SDS011;23169;41.804;12.596;2023-02-26T01:46:53;11.45;;;3.83;;
37280;SDS011;23169;41.804;12.596;2023-02-26T01:49:23;18.83;;;3.63;;
37280;SDS011;23169;41.804;12.596;2023-02-26T01:51:52;13.95;;;3.97;;
37280;SDS011;23169;41.804;12.596;2023-02-26T01:54:24;14.27;;;4.30;;
37280;SDS011;23169;41.804;12.596;2023-02-26T01:57:05;11.77;;;3.88;;
37280;SDS011;23169;41.804;12.596;2023-02-26T01:59:42;18.63;;;4.57;;
37280;SDS011;23169;41.804;12.596;2023-02-26T02:02:15;17.38;;;4.03;;
37280;SDS011;23169;41.804;12.596;2023-02-26T02:04:48;14.75;;;4.95;;
37280;SDS011;23169;41.804;12.596;2023-02-26T02:07:17;16.75;;;4.45;;
37280;SDS011;23169;41.804;12.596;2023-02-26T02:09:46;10.35;;;3.47;;
37280;SDS011;23169;41.804;12.596;2023-02-26T02:15:01;20.20;;;4.78;;
37280;SDS011;23169;41.804;12.596;2023-02-26T02:23:01;15.85;;;4.18;;
37280;SDS011;23169;41.804;12.596;2023-02-26T02:28:44;16.23;;;4.30;;
37280;SDS011;23169;41.804;12.596;2023-02-26T02:34:11;17.15;;;5.85;;
37280;SDS011;23169;41.804;12.596;2023-02-26T02:37:03;19.73;;;5.15;;
37280;SDS011;23169;41.804;12.596;2023-02-26T02:39:55;18.95;;;5.07;;
37280;SDS011;23169;41.804;12.596;2023-02-26T02:45:28;19.05;;;5.30;;
37280;SDS011;23169;41.804;12.596;2023-02-26T02:48:27;14.95;;;4.88;;
37280;SDS011;23169;41.804;12.596;2023-02-26T02:53:37;20.30;;;6.00;;
37280;SDS011;23169;41.804;12.596;2023-02-26T02:56:14;19.23;;;4.30;;
37280;SDS011;23169;41.804;12.596;2023-02-26T02:58:51;17.92;;;4.97;;
37280;SDS011;23169;41.804;12.596;2023-02-26T03:01:30;17.35;;;5.93;;
37280;SDS011;23169;41.804;12.596;2023-02-26T03:04:07;19.50;;;5.15;;
37280;SDS011;23169;41.804;12.596;2023-02-26T03:06:38;20.05;;;5.10;;
37280;SDS011;23169;41.804;12.596;2023-02-26T03:09:08;22.10;;;5.47;;
37280;SDS011;23169;41.804;12.596;2023-02-26T03:11:37;21.50;;;4.97;;
37280;SDS011;23169;41.804;12.596;2023-02-26T03:14:06;24.63;;;5.32;;
37280;SDS011;23169;41.804;12.596;2023-02-26T03:19:34;21.83;;;5.20;;
37280;SDS011;23169;41.804;12.596;2023-02-26T03:24:47;18.25;;;4.97;;
37280;SDS011;23169;41.804;12.596;2023-02-26T03:27:33;21.65;;;5.05;;
37280;SDS011;23169;41.804;12.596;2023-02-26T03:30:07;16.52;;;4.90;;
37280;SDS011;23169;41.804;12.596;2023-02-26T03:35:50;19.20;;;4.95;;
37280;SDS011;23169;41.804;12.596;2023-02-26T03:38:29;26.50;;;6.53;;
37280;SDS011;23169;41.804;12.596;2023-02-26T03:41:09;15.55;;;4.95;;
37280;SDS011;23169;41.804;12.596;2023-02-26T03:44:24;23.98;;;5.68;;
37280;SDS011;23169;41.804;12.596;2023-02-26T03:46:41;21.20;;;5.13;;
37280;SDS011;23169;41.804;12.596;2023-02-26T03:49:14;17.08;;;5.68;;
37280;SDS011;23169;41.804;12.596;2023-02-26T03:51:48;24.73;;;6.18;;
37280;SDS011;23169;41.804;12.596;2023-02-26T03:54:20;30.42;;;7.72;;
37280;SDS011;23169;41.804;12.596;2023-02-26T03:56:52;25.15;;;8.50;;
37280;SDS011;23169;41.804;12.596;2023-02-26T03:59:21;30.88;;;9.10;;
37280;SDS011;23169;41.804;12.596;2023-02-26T04:04:38;22.15;;;8.05;;
37280;SDS011;23169;41.804;12.596;2023-02-26T04:07:46;28.05;;;8.25;;
37280;SDS011;23169;41.804;12.596;2023-02-26T04:10:18;27.00;;;7.30;;
37280;SDS011;23169;41.804;12.596;2023-02-26T04:12:57;28.80;;;8.68;;
37280;SDS011;23169;41.804;12.596;2023-02-26T04:15:38;27.52;;;8.23;;
37280;SDS011;23169;41.804;12.596;2023-02-26T04:18:23;22.25;;;7.35;;
37280;SDS011;23169;41.804;12.596;2023-02-26T04:20:52;25.38;;;7.28;;
37280;SDS011;23169;41.804;12.596;2023-02-26T04:23:23;28.88;;;6.45;;
37280;SDS011;23169;41.804;12.596;2023-02-26T04:25:53;25.50;;;6.45;;
37280;SDS011;23169;41.804;12.596;2023-02-26T04:28:22;24.92;;;6.35;;
37280;SDS011;23169;41.804;12.596;2023-02-26T04:30:50;24.73;;;6.60;;
37280;SDS011;23169;41.804;12.596;2023-02-26T04:33:19;21.55;;;6.00;;
37280;SDS011;23169;41.804;12.596;2023-02-26T04:35:48;20.67;;;6.20;;
37280;SDS011;23169;41.804;12.596;2023-02-26T04:38:16;19.25;;;5.53;;
37280;SDS011;23169;41.804;12.596;2023-02-26T04:40:45;22.08;;;5.60;;
37280;SDS011;23169;41.804;12.596;2023-02-26T04:43:14;23.48;;;6.13;;
37280;SDS011;23169;41.804;12.596;2023-02-26T04:45:46;22.67;;;6.05;;
37280;SDS011;23169;41.804;12.596;2023-02-26T04:48:16;26.02;;;6.05;;
37280;SDS011;23169;41.804;12.596;2023-02-26T04:50:44;21.05;;;5.63;;
37280;SDS011;23169;41.804;12.596;2023-02-26T04:53:13;18.90;;;4.90;;
37280;SDS011;23169;41.804;12.596;2023-02-26T04:55:42;23.67;;;6.47;;
37280;SDS011;23169;41.804;12.596;2023-02-26T04:58:11;20.23;;;5.40;;
37280;SDS011;23169;41.804;12.596;2023-02-26T05:00:40;17.77;;;5.93;;
37280;SDS011;23169;41.804;12.596;2023-02-26T05:03:11;22.70;;;6.25;;
37280;SDS011;23169;41.804;12.596;2023-02-26T05:05:40;23.55;;;5.78;;
37280;SDS011;23169;41.804;12.596;2023-02-26T05:08:09;22.63;;;5.32;;
37280;SDS011;23169;41.804;12.596;2023-02-26T05:10:37;18.15;;;6.28;;
37280;SDS011;23169;41.804;12.596;2023-02-26T05:13:07;20.50;;;5.88;;
37280;SDS011;23169;41.804;12.596;2023-02-26T05:15:36;17.67;;;5.53;;
37280;SDS011;23169;41.804;12.596;2023-02-26T05:18:05;22.40;;;5.60;;
37280;SDS011;23169;41.804;12.596;2023-02-26T05:20:35;22.58;;;5.22;;
37280;SDS011;23169;41.804;12.596;2023-02-26T05:23:03;20.15;;;5.80;;
37280;SDS011;23169;41.804;12.596;2023-02-26T05:25:32;24.50;;;5.47;;
37280;SDS011;23169;41.804;12.596;2023-02-26T05:28:00;22.33;;;5.95;;
37280;SDS011;23169;41.804;12.596;2023-02-26T05:30:29;22.67;;;6.32;;
37280;SDS011;23169;41.804;12.596;2023-02-26T05:38:13;21.10;;;5.63;;
37280;SDS011;23169;41.804;12.596;2023-02-26T05:40:43;21.10;;;5.22;;
37280;SDS011;23169;41.804;12.596;2023-02-26T05:43:11;16.20;;;5.35;;
37280;SDS011;23169;41.804;12.596;2023-02-26T05:45:41;18.25;;;5.90;;
37280;SDS011;23169;41.804;12.596;2023-02-26T05:48:10;16.58;;;6.03;;
37280;SDS011;23169;41.804;12.596;2023-02-26T05:50:40;21.17;;;6.55;;
37280;SDS011;23169;41.804;12.596;2023-02-26T05:53:08;20.85;;;5.97;;
37280;SDS011;23169;41.804;12.596;2023-02-26T05:55:36;20.27;;;5.25;;
37280;SDS011;23169;41.804;12.596;2023-02-26T05:58:05;19.35;;;5.40;;
37280;SDS011;23169;41.804;12.596;2023-02-26T06:00:34;20.65;;;6.38;;
37280;SDS011;23169;41.804;12.596;2023-02-26T06:03:02;19.35;;;5.78;;
37280;SDS011;23169;41.804;12.596;2023-02-26T06:05:31;21.40;;;4.90;;
37280;SDS011;23169;41.804;12.596;2023-02-26T06:07:59;16.55;;;5.07;;
37280;SDS011;23169;41.804;12.596;2023-02-26T06:10:27;19.45;;;5.57;;
37280;SDS011;23169;41.804;12.596;2023-02-26T06:12:56;21.83;;;5.68;;
37280;SDS011;23169;41.804;12.596;2023-02-26T06:15:24;17.20;;;4.88;;
37280;SDS011;23169;41.804;12.596;2023-02-26T06:17:52;20.65;;;5.22;;
37280;SDS011;23169;41.804;12.596;2023-02-26T06:20:20;18.25;;;5.65;;
37280;SDS011;23169;41.804;12.596;2023-02-26T06:22:49;21.17;;;6.05;;
37280;SDS011;23169;41.804;12.596;2023-02-26T06:25:17;19.90;;;5.57;;
37280;SDS011;23169;41.804;12.596;2023-02-26T06:27:46;19.40;;;6.03;;
37280;SDS011;23169;41.804;12.596;2023-02-26T06:30:15;21.00;;;5.93;;
37280;SDS011;23169;41.804;12.596;2023-02-26T06:32:45;20.40;;;6.22;;
37280;SDS011;23169;41.804;12.596;2023-02-26T06:35:14;21.35;;;6.03;;
37280;SDS011;23169;41.804;12.596;2023-02-26T06:37:42;21.92;;;6.38;;
37280;SDS011;23169;41.804;12.596;2023-02-26T06:40:11;18.52;;;5.88;;
37280;SDS011;23169;41.804;12.596;2023-02-26T06:42:40;23.63;;;5.80;;
37280;SDS011;23169;41.804;12.596;2023-02-26T06:45:08;20.73;;;8.27;;
37280;SDS011;23169;41.804;12.596;2023-02-26T06:47:38;25.40;;;6.85;;
37280;SDS011;23169;41.804;12.596;2023-02-26T06:50:06;26.23;;;6.10;;
37280;SDS011;23169;41.804;12.596;2023-02-26T06:52:36;24.70;;;7.53;;
37280;SDS011;23169;41.804;12.596;2023-02-26T06:55:05;19.27;;;5.85;;
37280;SDS011;23169;41.804;12.596;2023-02-26T06:57:33;19.60;;;5.95;;
37280;SDS011;23169;41.804;12.596;2023-02-26T07:00:02;19.77;;;6.13;;
37280;SDS011;23169;41.804;12.596;2023-02-26T07:02:32;22.80;;;6.60;;
37280;SDS011;23169;41.804;12.596;2023-02-26T07:05:01;21.48;;;6.78;;
37280;SDS011;23169;41.804;12.596;2023-02-26T07:07:29;22.38;;;6.63;;
37280;SDS011;23169;41.804;12.596;2023-02-26T07:10:01;21.88;;;6.28;;
37280;SDS011;23169;41.804;12.596;2023-02-26T07:12:33;22.83;;;6.10;;
37280;SDS011;23169;41.804;12.596;2023-02-26T07:15:01;23.25;;;7.28;;
37280;SDS011;23169;41.804;12.596;2023-02-26T07:17:30;22.30;;;7.45;;
37280;SDS011;23169;41.804;12.596;2023-02-26T07:19:59;23.05;;;6.82;;
37280;SDS011;23169;41.804;12.596;2023-02-26T07:22:33;21.17;;;6.78;;
37280;SDS011;23169;41.804;12.596;2023-02-26T07:25:02;21.73;;;6.22;;
37280;SDS011;23169;41.804;12.596;2023-02-26T07:27:32;21.95;;;6.65;;
37280;SDS011;23169;41.804;12.596;2023-02-26T07:30:00;30.15;;;7.38;;
37280;SDS011;23169;41.804;12.596;2023-02-26T07:32:30;23.50;;;7.03;;
37280;SDS011;23169;41.804;12.596;2023-02-26T07:34:59;18.10;;;5.22;;
37280;SDS011;23169;41.804;12.596;2023-02-26T07:37:28;22.50;;;7.57;;
37280;SDS011;23169;41.804;12.596;2023-02-26T07:39:56;15.55;;;4.20;;
37280;SDS011;23169;41.804;12.596;2023-02-26T07:42:24;8.45;;;3.13;;
37280;SDS011;23169;41.804;12.596;2023-02-26T07:44:53;11.52;;;3.50;;
37280;SDS011;23169;41.804;12.596;2023-02-26T07:47:21;10.00;;;2.53;;
37280;SDS011;23169;41.804;12.596;2023-02-26T07:49:50;6.68;;;1.77;;
37280;SDS011;23169;41.804;12.596;2023-02-26T07:52:18;6.35;;;1.48;;
37280;SDS011;23169;41.804;12.596;2023-02-26T07:54:46;13.80;;;2.90;;
37280;SDS011;23169;41.804;12.596;2023-02-26T07:57:14;5.38;;;1.83;;
37280;SDS011;23169;41.804;12.596;2023-02-26T07:59:43;10.25;;;2.25;;
37280;SDS011;23169;41.804;12.596;2023-02-26T08:02:11;9.18;;;1.95;;
37280;SDS011;23169;41.804;12.596;2023-02-26T08:04:41;10.93;;;2.03;;
37280;SDS011;23169;41.804;12.596;2023-02-26T08:07:10;4.97;;;1.33;;
37280;SDS011;23169;41.804;12.596;2023-02-26T08:09:38;3.35;;;1.75;;
37280;SDS011;23169;41.804;12.596;2023-02-26T08:12:06;10.82;;;1.95;;
37280;SDS011;23169;41.804;12.596;2023-02-26T08:14:35;6.05;;;1.75;;
37280;SDS011;23169;41.804;12.596;2023-02-26T08:17:03;7.93;;;1.77;;
37280;SDS011;23169;41.804;12.596;2023-02-26T08:19:32;5.35;;;1.33;;
37280;SDS011;23169;41.804;12.596;2023-02-26T08:22:01;5.53;;;1.42;;
37280;SDS011;23169;41.804;12.596;2023-02-26T08:24:31;4.95;;;1.30;;
37280;SDS011;23169;41.804;12.596;2023-02-26T08:26:59;4.45;;;1.67;;
37280;SDS011;23169;41.804;12.596;2023-02-26T08:29:27;7.72;;;2.03;;
37280;SDS011;23169;41.804;12.596;2023-02-26T08:31:56;6.38;;;1.88;;
37280;SDS011;23169;41.804;12.596;2023-02-26T08:34:24;5.70;;;1.58;;
37280;SDS011;23169;41.804;12.596;2023-02-26T08:36:53;4.28;;;1.23;;
37280;SDS011;23169;41.804;12.596;2023-02-26T08:39:22;10.63;;;1.90;;
37280;SDS011;23169;41.804;12.596;2023-02-26T08:41:50;5.25;;;1.38;;
37280;SDS011;23169;41.804;12.596;2023-02-26T08:44:18;6.57;;;1.50;;
37280;SDS011;23169;41.804;12.596;2023-02-26T08:46:47;4.25;;;1.20;;
37280;SDS011;23169;41.804;12.596;2023-02-26T08:49:16;5.47;;;1.35;;
37280;SDS011;23169;41.804;12.596;2023-02-26T08:51:44;7.55;;;1.63;;
37280;SDS011;23169;41.804;12.596;2023-02-26T08:54:13;8.48;;;1.60;;
37280;SDS011;23169;41.804;12.596;2023-02-26T08:56:41;3.67;;;1.17;;
37280;SDS011;23169;41.804;12.596;2023-02-26T08:59:09;4.00;;;1.58;;
37280;SDS011;23169;41.804;12.596;2023-02-26T09:01:40;7.10;;;2.00;;
37280;SDS011;23169;41.804;12.596;2023-02-26T09:04:09;4.68;;;2.03;;
37280;SDS011;23169;41.804;12.596;2023-02-26T09:06:37;7.88;;;1.48;;
37280;SDS011;23169;41.804;12.596;2023-02-26T09:09:05;5.97;;;1.85;;
37280;SDS011;23169;41.804;12.596;2023-02-26T09:11:34;7.45;;;1.67;;
37280;SDS011;23169;41.804;12.596;2023-02-26T09:14:03;3.35;;;1.63;;
37280;SDS011;23169;41.804;12.596;2023-02-26T09:16:33;4.30;;;1.23;;
37280;SDS011;23169;41.804;12.596;2023-02-26T09:19:03;6.80;;;1.73;;
37280;SDS011;23169;41.804;12.596;2023-02-26T09:21:33;9.95;;;1.88;;
37280;SDS011;23169;41.804;12.596;2023-02-26T09:24:02;3.95;;;1.23;;
37280;SDS011;23169;41.804;12.596;2023-02-26T09:26:31;4.40;;;1.50;;
37280;SDS011;23169;41.804;12.596;2023-02-26T09:28:59;6.75;;;1.50;;
37280;SDS011;23169;41.804;12.596;2023-02-26T09:31:28;6.60;;;1.73;;
37280;SDS011;23169;41.804;12.596;2023-02-26T09:33:56;6.55;;;1.52;;
37280;SDS011;23169;41.804;12.596;2023-02-26T09:36:25;5.78;;;1.52;;
37280;SDS011;23169;41.804;12.596;2023-02-26T09:38:54;3.63;;;1.25;;
37280;SDS011;23169;41.804;12.596;2023-02-26T09:41:27;5.45;;;1.85;;
37280;SDS011;23169;41.804;12.596;2023-02-26T09:54:52;5.43;;;1.88;;
37280;SDS011;23169;41.804;12.596;2023-02-26T09:57:39;6.28;;;1.88;;
37280;SDS011;23169;41.804;12.596;2023-02-26T10:00:21;5.63;;;2.35;;
37280;SDS011;23169;41.804;12.596;2023-02-26T10:05:35;5.25;;;1.75;;
37280;SDS011;23169;41.804;12.596;2023-02-26T10:08:13;9.25;;;2.50;;
37280;SDS011;23169;41.804;12.596;2023-02-26T10:10:57;8.85;;;2.30;;
37280;SDS011;23169;41.804;12.596;2023-02-26T10:16:19;7.72;;;2.53;;
37280;SDS011;23169;41.804;12.596;2023-02-26T10:18:52;7.50;;;2.85;;
37280;SDS011;23169;41.804;12.596;2023-02-26T10:21:27;14.30;;;3.55;;
37280;SDS011;23169;41.804;12.596;2023-02-26T10:24:04;14.27;;;4.28;;
37280;SDS011;23169;41.804;12.596;2023-02-26T10:26:44;10.70;;;2.65;;
37280;SDS011;23169;41.804;12.596;2023-02-26T10:29:19;11.45;;;2.60;;
37280;SDS011;23169;41.804;12.596;2023-02-26T10:32:13;12.93;;;3.10;;
37280;SDS011;23169;41.804;12.596;2023-02-26T10:34:56;11.57;;;3.33;;
37280;SDS011;23169;41.804;12.596;2023-02-26T10:40:18;11.45;;;2.95;;
37280;SDS011;23169;41.804;12.596;2023-02-26T10:43:04;13.90;;;3.22;;
37280;SDS011;23169;41.804;12.596;2023-02-26T10:51:35;10.40;;;3.38;;
37280;SDS011;23169;41.804;12.596;2023-02-26T10:54:15;8.32;;;2.75;;
37280;SDS011;23169;41.804;12.596;2023-02-26T10:56:45;9.50;;;2.28;;
37280;SDS011;23169;41.804;12.596;2023-02-26T10:59:14;8.98;;;2.67;;
37280;SDS011;23169;41.804;12.596;2023-02-26T11:01:43;7.50;;;2.88;;
37280;SDS011;23169;41.804;12.596;2023-02-26T11:04:14;11.02;;;3.00;;
37280;SDS011;23169;41.804;12.596;2023-02-26T11:06:45;3.38;;;2.17;;
37280;SDS011;23169;41.804;12.596;2023-02-26T11:11:52;10.07;;;2.33;;
37280;SDS011;23169;41.804;12.596;2023-02-26T11:14:53;10.25;;;2.55;;
37280;SDS011;23169;41.804;12.596;2023-02-26T11:17:23;5.45;;;2.50;;
37280;SDS011;23169;41.804;12.596;2023-02-26T11:20:04;7.78;;;2.70;;
37280;SDS011;23169;41.804;12.596;2023-02-26T11:22:48;10.70;;;2.88;;
37280;SDS011;23169;41.804;12.596;2023-02-26T11:25:21;11.05;;;2.58;;
37280;SDS011;23169;41.804;12.596;2023-02-26T11:27:54;2.92;;;2.10;;
37280;SDS011;23169;41.804;12.596;2023-02-26T11:30:41;8.30;;;2.30;;
37280;SDS011;23169;41.804;12.596;2023-02-26T11:33:16;7.55;;;2.28;;
37280;SDS011;23169;41.804;12.596;2023-02-26T11:35:49;10.52;;;2.60;;
37280;SDS011;23169;41.804;12.596;2023-02-26T11:38:20;10.18;;;2.65;;
37280;SDS011;23169;41.804;12.596;2023-02-26T11:40:53;6.15;;;2.35;;
37280;SDS011;23169;41.804;12.596;2023-02-26T11:43:25;6.82;;;2.45;;
37280;SDS011;23169;41.804;12.596;2023-02-26T11:46:00;10.05;;;2.42;;
37280;SDS011;23169;41.804;12.596;2023-02-26T11:51:11;12.27;;;2.95;;
37280;SDS011;23169;41.804;12.596;2023-02-26T11:53:53;5.63;;;2.38;;
37280;SDS011;23169;41.804;12.596;2023-02-26T11:59:06;7.70;;;1.83;;
37280;SDS011;23169;41.804;12.596;2023-02-26T12:01:44;8.57;;;2.28;;
37280;SDS011;23169;41.804;12.596;2023-02-26T12:04:20;3.95;;;1.75;;
37280;SDS011;23169;41.804;12.596;2023-02-26T12:06:50;9.25;;;2.45;;
37280;SDS011;23169;41.804;12.596;2023-02-26T12:09:20;14.07;;;3.42;;
37280;SDS011;23169;41.804;12.596;2023-02-26T12:31:07;5.75;;;1.92;;
37280;SDS011;23169;41.804;12.596;2023-02-26T12:39:42;12.30;;;2.97;;
37280;SDS011;23169;41.804;12.596;2023-02-26T12:45:27;7.22;;;1.63;;
37280;SDS011;23169;41.804;12.596;2023-02-26T12:54:16;4.70;;;1.27;;
37280;SDS011;23169;41.804;12.596;2023-02-26T12:57:00;8.30;;;2.17;;
37280;SDS011;23169;41.804;12.596;2023-02-26T13:00:14;7.63;;;1.90;;
37280;SDS011;23169;41.804;12.596;2023-02-26T13:03:26;6.85;;;1.83;;
37280;SDS011;23169;41.804;12.596;2023-02-26T13:09:14;12.45;;;2.05;;
37280;SDS011;23169;41.804;12.596;2023-02-26T13:14:30;6.18;;;1.40;;
37280;SDS011;23169;41.804;12.596;2023-02-26T13:20:15;8.75;;;1.73;;
37280;SDS011;23169;41.804;12.596;2023-02-26T13:22:53;4.50;;;1.23;;
37280;SDS011;23169;41.804;12.596;2023-02-26T13:28:06;7.18;;;1.52;;
37280;SDS011;23169;41.804;12.596;2023-02-26T13:30:49;7.03;;;1.70;;
37280;SDS011;23169;41.804;12.596;2023-02-26T13:33:24;8.82;;;1.73;;
37280;SDS011;23169;41.804;12.596;2023-02-26T13:35:57;5.50;;;1.13;;
37280;SDS011;23169;41.804;12.596;2023-02-26T13:52:29;9.65;;;1.77;;
37280;SDS011;23169;41.804;12.596;2023-02-26T13:55:01;4.57;;;1.60;;
37280;SDS011;23169;41.804;12.596;2023-02-26T14:00:07;11.90;;;1.95;;
37280;SDS011;23169;41.804;12.596;2023-02-26T14:16:41;3.75;;;1.27;;
37280;SDS011;23169;41.804;12.596;2023-02-26T14:19:18;5.57;;;1.90;;
37280;SDS011;23169;41.804;12.596;2023-02-26T14:25:16;3.58;;;1.58;;
37280;SDS011;23169;41.804;12.596;2023-02-26T14:30:52;2.92;;;1.40;;
37280;SDS011;23169;41.804;12.596;2023-02-26T14:33:28;3.67;;;1.40;;
37280;SDS011;23169;41.804;12.596;2023-02-26T14:35:57;8.07;;;1.48;;
37280;SDS011;23169;41.804;12.596;2023-02-26T14:38:28;9.90;;;1.45;;
37280;SDS011;23169;41.804;12.596;2023-02-26T14:41:42;3.67;;;1.20;;
37280;SDS011;23169;41.804;12.596;2023-02-26T14:43:58;7.85;;;1.60;;
37280;SDS011;23169;41.804;12.596;2023-02-26T14:46:30;6.18;;;1.40;;
37280;SDS011;23169;41.804;12.596;2023-02-26T14:49:00;4.68;;;1.23;;
37280;SDS011;23169;41.804;12.596;2023-02-26T14:51:37;7.03;;;1.70;;
37280;SDS011;23169;41.804;12.596;2023-02-26T14:57:03;7.78;;;1.33;;
37280;SDS011;23169;41.804;12.596;2023-02-26T15:03:05;9.68;;;1.80;;
37280;SDS011;23169;41.804;12.596;2023-02-26T15:28:05;7.72;;;1.73;;
37280;SDS011;23169;41.804;12.596;2023-02-26T15:30:38;7.97;;;2.10;;
37280;SDS011;23169;41.804;12.596;2023-02-26T15:33:11;10.40;;;1.30;;
37280;SDS011;23169;41.804;12.596;2023-02-26T15:35:43;7.90;;;1.52;;
37280;SDS011;23169;41.804;12.596;2023-02-26T15:38:12;7.65;;;1.60;;
37280;SDS011;23169;41.804;12.596;2023-02-26T15:40:40;12.57;;;2.20;;
37280;SDS011;23169;41.804;12.596;2023-02-26T15:43:13;7.30;;;1.98;;
37280;SDS011;23169;41.804;12.596;2023-02-26T15:45:47;8.55;;;1.38;;
37280;SDS011;23169;41.804;12.596;2023-02-26T15:48:25;7.28;;;1.73;;
37280;SDS011;23169;41.804;12.596;2023-02-26T15:51:00;12.57;;;1.50;;
37280;SDS011;23169;41.804;12.596;2023-02-26T15:56:05;9.20;;;2.05;;
37280;SDS011;23169;41.804;12.596;2023-02-26T16:01:30;12.95;;;2.22;;
37280;SDS011;23169;41.804;12.596;2023-02-26T16:04:00;4.65;;;1.73;;
37280;SDS011;23169;41.804;12.596;2023-02-26T16:06:36;8.30;;;2.38;;
37280;SDS011;23169;41.804;12.596;2023-02-26T16:09:18;6.88;;;1.80;;
37280;SDS011;23169;41.804;12.596;2023-02-26T16:11:52;8.00;;;2.00;;
37280;SDS011;23169;41.804;12.596;2023-02-26T16:14:30;8.77;;;1.90;;
37280;SDS011;23169;41.804;12.596;2023-02-26T16:17:03;8.63;;;2.10;;
37280;SDS011;23169;41.804;12.596;2023-02-26T16:19:37;7.65;;;1.95;;
37280;SDS011;23169;41.804;12.596;2023-02-26T16:24:49;13.93;;;2.10;;
37280;SDS011;23169;41.804;12.596;2023-02-26T16:27:23;9.65;;;4.43;;
37280;SDS011;23169;41.804;12.596;2023-02-26T16:29:54;8.82;;;1.98;;
37280;SDS011;23169;41.804;12.596;2023-02-26T16:32:27;8.95;;;1.92;;
37280;SDS011;23169;41.804;12.596;2023-02-26T16:35:07;8.07;;;1.50;;
37280;SDS011;23169;41.804;12.596;2023-02-26T16:37:51;5.57;;;2.25;;
37280;SDS011;23169;41.804;12.596;2023-02-26T16:43:03;8.68;;;1.55;;
37280;SDS011;23169;41.804;12.596;2023-02-26T16:45:55;8.85;;;1.70;;
37280;SDS011;23169;41.804;12.596;2023-02-26T16:48:27;6.13;;;1.38;;
37280;SDS011;23169;41.804;12.596;2023-02-26T16:51:05;9.00;;;2.08;;
37280;SDS011;23169;41.804;12.596;2023-02-26T16:53:42;7.32;;;1.95;;
37280;SDS011;23169;41.804;12.596;2023-02-26T16:56:34;7.88;;;2.08;;
37280;SDS011;23169;41.804;12.596;2023-02-26T16:59:20;7.75;;;2.00;;
37280;SDS011;23169;41.804;12.596;2023-02-26T17:01:52;9.00;;;2.13;;
37280;SDS011;23169;41.804;12.596;2023-02-26T17:04:31;7.97;;;2.00;;
37280;SDS011;23169;41.804;12.596;2023-02-26T17:07:16;9.93;;;2.63;;
37280;SDS011;23169;41.804;12.596;2023-02-26T17:09:59;10.50;;;2.35;;
37280;SDS011;23169;41.804;12.596;2023-02-26T17:12:44;10.20;;;2.85;;
37280;SDS011;23169;41.804;12.596;2023-02-26T17:15:33;8.75;;;2.60;;
37280;SDS011;23169;41.804;12.596;2023-02-26T17:18:04;9.98;;;3.42;;
37280;SDS011;23169;41.804;12.596;2023-02-26T17:20:33;9.55;;;3.40;;
37280;SDS011;23169;41.804;12.596;2023-02-26T17:23:03;19.40;;;5.15;;
37280;SDS011;23169;41.804;12.596;2023-02-26T17:25:37;16.13;;;5.00;;
37280;SDS011;23169;41.804;12.596;2023-02-26T17:28:09;16.00;;;5.18;;
37280;SDS011;23169;41.804;12.596;2023-02-26T17:30:44;23.35;;;5.93;;
37280;SDS011;23169;41.804;12.596;2023-02-26T17:33:13;13.68;;;5.32;;
37280;SDS011;23169;41.804;12.596;2023-02-26T17:35:43;15.38;;;6.05;;
37280;SDS011;23169;41.804;12.596;2023-02-26T17:38:12;24.20;;;6.82;;
37280;SDS011;23169;41.804;12.596;2023-02-26T17:40:43;14.32;;;6.00;;
37280;SDS011;23169;41.804;12.596;2023-02-26T17:43:14;14.05;;;6.15;;
37280;SDS011;23169;41.804;12.596;2023-02-26T17:45:44;14.50;;;5.50;;
37280;SDS011;23169;41.804;12.596;2023-02-26T17:48:13;12.38;;;5.38;;
37280;SDS011;23169;41.804;12.596;2023-02-26T17:50:55;14.27;;;5.35;;
37280;SDS011;23169;41.804;12.596;2023-02-26T17:53:24;13.38;;;4.95;;
37280;SDS011;23169;41.804;12.596;2023-02-26T17:56:11;19.52;;;5.45;;
37280;SDS011;23169;41.804;12.596;2023-02-26T18:01:11;15.77;;;5.80;;
37280;SDS011;23169;41.804;12.596;2023-02-26T18:03:40;15.55;;;5.40;;
37280;SDS011;23169;41.804;12.596;2023-02-26T18:06:12;15.75;;;6.38;;
37280;SDS011;23169;41.804;12.596;2023-02-26T18:08:43;12.43;;;6.03;;
37280;SDS011;23169;41.804;12.596;2023-02-26T18:11:14;14.07;;;4.97;;
37280;SDS011;23169;41.804;12.596;2023-02-26T18:13:44;14.45;;;5.78;;
37280;SDS011;23169;41.804;12.596;2023-02-26T18:16:17;16.15;;;5.25;;
37280;SDS011;23169;41.804;12.596;2023-02-26T18:18:48;13.60;;;4.50;;
37280;SDS011;23169;41.804;12.596;2023-02-26T18:21:16;10.10;;;4.40;;
37280;SDS011;23169;41.804;12.596;2023-02-26T18:23:48;13.10;;;4.68;;
37280;SDS011;23169;41.804;12.596;2023-02-26T18:26:17;11.30;;;4.63;;